JUN weather

Jundah Airport
Queensland, Australia

Public forecast

Using degrees Celsius for public forecast. Weather courtesy of forecast.io.

METAR (pilot weather report)

Closest report is Longreach Airport, 107.8 nm (199.7 km) NE. Retrieved 2019/04/23 17:00 UTC (29 minutes ago):

YLRE 231700Z AUTO 13011KT 9999 // BKN115 19/15 Q1017

TAF (pilot weather forecast)

Closest forecast is Rockhampton Airport, 415.7 nm (770.0 km) E. Retrieved 2019/04/23 12:38 UTC (5 hours ago):

TAF YBRK 231128Z 2312/2412 12010KT 9999 -SHRA SCT018 BKN030 FM240000 10014KT 9999 -SHRA SCT025 BKN045 FM240900 12010KT 9999 -SHRA SCT018 BKN030 TEMPO 2314/2322 3000 SHRA BKN008 INTER 2409/2412 3000 SHRA BKN010